Time;durP1;ratioP1;P1;durP2;ratioP2;P2;SDS_P1;SDS_P2;PMS_P1;PMS_P2;Temp;Humidity;BMP_temperature;BMP_pressure;BME280_temperature;BME280_humidity;BME280_pressure;Samples;Min_cycle;Max_cycle;Signal;HPM_P1;HPM_P2
2021/06/03 00:00:22;;;;;;;19.17;11.23;;;;;;;7.27;67.00;99725.38;2129149;84;20997;-82
2021/06/03 00:03:24;;;;;;;16.97;10.47;;;;;;;7.24;67.00;99730.45;2100431;84;21067;-81
2021/06/03 00:06:25;;;;;;;13.60;10.00;;;;;;;7.22;66.91;99727.33;2130987;84;20965;-80
2021/06/03 00:09:26;;;;;;;16.67;10.63;;;;;;;7.15;67.12;99726.61;2131054;84;21063;-80
2021/06/03 00:12:27;;;;;;;15.10;9.97;;;;;;;7.12;67.25;99732.57;2131152;84;20996;-80
2021/06/03 00:15:28;;;;;;;16.83;10.50;;;;;;;7.18;67.33;99733.22;2131423;84;20996;-81
2021/06/03 00:18:29;;;;;;;19.23;9.43;;;;;;;7.10;67.02;99731.63;2131377;84;21424;-80
2021/06/03 00:21:30;;;;;;;17.73;10.73;;;;;;;7.10;67.02;99731.63;2131142;83;21396;-80
2021/06/03 00:24:31;;;;;;;16.83;10.37;;;;;;;7.05;67.34;99730.97;2131029;84;20956;-80
2021/06/03 00:27:32;;;;;;;11.60;10.07;;;;;;;7.00;67.56;99742.47;2131642;84;21041;-83
2021/06/03 00:30:33;;;;;;;26.17;10.37;;;;;;;7.00;67.56;99742.47;2130843;84;20988;-83
2021/06/03 00:33:34;;;;;;;14.30;10.33;;;;;;;6.98;67.31;99741.52;2130696;84;21520;-82
2021/06/03 00:36:35;;;;;;;14.30;11.13;;;;;;;6.94;67.30;99734.02;2131324;84;20941;-83
2021/06/03 00:39:36;;;;;;;14.27;10.17;;;;;;;6.90;67.37;99735.10;2131228;84;21060;-83
2021/06/03 00:42:37;;;;;;;14.30;10.23;;;;;;;6.88;67.34;99736.75;2131199;84;21012;-82
2021/06/03 00:45:38;;;;;;;16.27;10.60;;;;;;;6.85;67.58;99736.63;2131217;84;20979;-82
2021/06/03 00:48:39;;;;;;;16.80;10.33;;;;;;;6.80;67.48;99734.25;2130935;84;20941;-83
2021/06/03 00:51:40;;;;;;;17.60;10.60;;;;;;;6.76;67.60;99737.13;2130966;84;20980;-85
2021/06/03 00:54:41;;;;;;;73.77;14.17;;;;;;;6.75;67.90;99740.97;2130898;84;20937;-82
2021/06/03 00:57:43;;;;;;;13.87;10.23;;;;;;;6.72;67.60;99740.42;2130537;84;20997;-82
2021/06/03 01:00:44;;;;;;;17.80;10.13;;;;;;;6.67;67.71;99738.94;2130743;84;21001;-83
2021/06/03 01:03:45;;;;;;;15.83;10.10;;;;;;;6.64;67.83;99732.33;2128329;84;21044;-82
2021/06/03 01:06:46;;;;;;;27.93;11.20;;;;;;;6.61;67.94;99736.09;2128348;84;20973;-81
2021/06/03 01:09:47;;;;;;;164.90;18.63;;;;;;;6.59;67.90;99735.14;2128438;84;20937;-82
2021/06/03 01:12:48;;;;;;;21.90;10.47;;;;;;;6.57;67.91;99738.09;2128652;84;20945;-83
2021/06/03 01:15:49;;;;;;;15.97;11.00;;;;;;;6.55;68.18;99746.21;2128430;84;21000;-82
2021/06/03 01:18:49;;;;;;;18.93;11.20;;;;;;;6.55;68.17;99746.62;2128734;84;21043;-80
2021/06/03 01:21:51;;;;;;;18.80;11.03;;;;;;;6.53;68.20;99741.37;2129064;84;21068;-79
2021/06/03 01:24:52;;;;;;;16.23;11.27;;;;;;;6.51;68.03;99739.53;2129315;84;21073;-81
2021/06/03 01:27:53;;;;;;;19.33;12.03;;;;;;;6.49;68.09;99746.37;2128624;84;21024;-81
2021/06/03 01:30:54;;;;;;;15.53;11.57;;;;;;;6.47;67.95;99740.23;2129254;84;21041;-80
2021/06/03 01:33:55;;;;;;;16.80;11.77;;;;;;;6.45;68.04;99749.66;2129332;84;21072;-80
2021/06/03 01:36:56;;;;;;;17.70;12.20;;;;;;;6.41;68.04;99753.83;2129140;84;21333;-80
2021/06/03 01:39:57;;;;;;;26.27;12.57;;;;;;;6.39;68.02;99755.47;2129311;84;20989;-79
2021/06/03 01:42:58;;;;;;;27.70;12.67;;;;;;;6.36;67.95;99754.04;2129659;84;21361;-84
2021/06/03 01:45:59;;;;;;;23.57;13.13;;;;;;;6.32;67.94;99756.02;2129656;84;21000;-80
2021/06/03 01:49:00;;;;;;;24.20;13.27;;;;;;;6.26;68.09;99757.05;2129747;84;21373;-80
2021/06/03 01:52:01;;;;;;;21.37;12.27;;;;;;;6.23;68.25;99764.29;2129897;84;20989;-80
2021/06/03 01:55:02;;;;;;;40.00;13.77;;;;;;;6.21;68.36;99775.41;2129323;84;21359;-83
2021/06/03 01:58:03;;;;;;;24.97;12.40;;;;;;;6.23;68.89;99771.19;2129354;84;21052;-80
2021/06/03 02:01:03;;;;;;;18.90;12.30;;;;;;;6.20;69.01;99773.23;2129421;84;21309;-80
2021/06/03 02:04:04;;;;;;;17.40;12.40;;;;;;;6.22;69.28;99761.63;2129322;84;21460;-80
2021/06/03 02:07:05;;;;;;;22.93;12.80;;;;;;;6.22;68.74;99770.30;2129164;84;20985;-81
2021/06/03 02:10:07;;;;;;;17.80;12.10;;;;;;;6.20;68.72;99769.34;2129243;84;21060;-80
2021/06/03 02:13:08;;;;;;;22.10;12.23;;;;;;;6.15;68.60;99766.96;2129260;84;21027;-81
2021/06/03 02:16:09;;;;;;;20.47;12.17;;;;;;;6.13;68.77;99766.00;2129278;84;21395;-82
2021/06/03 02:19:10;;;;;;;18.83;11.87;;;;;;;6.13;68.73;99775.08;2129447;84;20980;-79
2021/06/03 02:22:11;;;;;;;20.33;12.33;;;;;;;6.04;68.48;99775.53;2129550;84;20985;-80
2021/06/03 02:25:11;;;;;;;18.10;11.73;;;;;;;6.00;68.59;99768.43;2129302;84;21004;-81
2021/06/03 02:28:13;;;;;;;18.93;11.87;;;;;;;6.04;68.44;99773.34;2129554;84;21396;-80
2021/06/03 02:31:14;;;;;;;18.00;11.57;;;;;;;6.00;68.31;99774.91;2129506;84;21021;-80
2021/06/03 02:34:15;;;;;;;17.87;11.90;;;;;;;5.92;68.47;99772.39;2128963;84;21080;-80
2021/06/03 02:37:18;;;;;;;19.17;11.70;;;;;;;5.92;68.60;99776.27;2129356;84;20980;-81
2021/06/03 02:40:18;;;;;;;19.90;12.37;;;;;;;6.15;69.96;99778.63;2129313;84;21071;-81
2021/06/03 02:43:19;;;;;;;19.20;12.53;;;;;;;6.24;68.29;99776.44;2129329;84;20957;-81
2021/06/03 02:46:20;;;;;;;20.00;14.03;;;;;;;6.16;68.16;99771.73;2128797;84;21045;-84
2021/06/03 02:49:21;;;;;;;22.33;13.33;;;;;;;8.94;84.23;99770.94;2128989;84;21020;-82
2021/06/03 02:52:22;;;;;;;19.60;11.93;;;;;;;12.25;77.11;99758.96;2129165;84;20993;-81
2021/06/03 02:55:23;;;;;;;21.30;11.87;;;;;;;12.50;61.64;99753.77;2129161;84;21012;-81
2021/06/03 02:58:26;;;;;;;23.40;12.73;;;;;;;10.85;58.97;99761.83;2098191;84;21054;-81
2021/06/03 03:01:27;;;;;;;20.60;12.07;;;;;;;9.67;59.24;99768.91;2129519;84;20961;-81
2021/06/03 03:04:28;;;;;;;20.37;12.17;;;;;;;8.79;59.87;99770.42;2129220;84;21400;-82
2021/06/03 03:07:29;;;;;;;19.37;13.20;;;;;;;8.18;60.89;99771.25;2129462;84;20989;-82
2021/06/03 03:10:30;;;;;;;23.23;13.63;;;;;;;7.76;61.65;99781.81;2129565;84;20998;-82
2021/06/03 03:13:31;;;;;;;19.10;13.13;;;;;;;7.41;62.33;99781.75;2129223;84;20977;-81
2021/06/03 03:16:32;;;;;;;24.93;13.87;;;;;;;7.18;63.15;99787.75;2129058;84;20992;-82
2021/06/03 03:19:32;;;;;;;20.10;13.13;;;;;;;7.01;63.73;99784.06;2129313;84;21012;-81
2021/06/03 03:22:34;;;;;;;25.20;13.87;;;;;;;6.84;64.26;99785.05;2129532;84;21052;-82
2021/06/03 03:25:34;;;;;;;21.60;13.80;;;;;;;6.80;64.83;99780.55;2129805;84;20937;-82
2021/06/03 03:28:36;;;;;;;19.30;12.70;;;;;;;6.77;64.87;99788.63;2129040;84;20977;-83
2021/06/03 03:31:37;;;;;;;19.27;12.37;;;;;;;8.04;64.20;99785.05;2129529;84;21051;-81
2021/06/03 03:34:37;;;;;;;19.90;13.00;;;;;;;8.04;64.20;99785.05;2129227;84;20992;-81
2021/06/03 03:37:38;;;;;;;16.50;12.57;;;;;;;7.72;63.72;99785.12;2129561;84;20957;-82
2021/06/03 03:40:39;;;;;;;18.87;13.43;;;;;;;7.55;64.29;99783.59;2129119;84;21037;-82
2021/06/03 03:43:40;;;;;;;18.00;12.83;;;;;;;7.49;64.64;99788.13;2128959;84;21008;-82
2021/06/03 03:46:41;;;;;;;21.57;13.10;;;;;;;7.44;64.67;99792.67;2129003;84;20993;-82
2021/06/03 03:49:42;;;;;;;19.83;14.00;;;;;;;7.41;65.01;99783.47;2128915;84;20961;-82
2021/06/03 03:52:43;;;;;;;19.70;12.80;;;;;;;7.42;65.37;99784.83;2128945;84;20977;-81
2021/06/03 03:55:44;;;;;;;19.23;13.07;;;;;;;7.52;65.58;99789.55;2129266;84;20993;-81
2021/06/03 03:58:46;;;;;;;25.80;14.17;;;;;;;7.72;65.71;99795.93;2129189;84;20961;-81
2021/06/03 04:01:47;;;;;;;22.37;13.33;;;;;;;7.88;65.78;99790.52;2129161;84;21050;-81
2021/06/03 04:04:48;;;;;;;22.37;13.60;;;;;;;8.10;65.85;99783.98;2128692;84;21140;-82
2021/06/03 04:07:49;;;;;;;25.87;14.27;;;;;;;8.43;65.88;99782.14;2129144;84;20976;-81
2021/06/03 04:10:50;;;;;;;17.73;13.17;;;;;;;8.79;65.84;99773.45;2129056;84;21032;-81
2021/06/03 04:13:51;;;;;;;16.80;12.47;;;;;;;9.14;65.56;99780.70;2129258;84;20968;-80
2021/06/03 04:16:53;;;;;;;19.37;13.53;;;;;;;9.52;65.26;99777.99;2128700;84;21361;-80
2021/06/03 04:19:54;;;;;;;19.83;13.43;;;;;;;9.86;65.05;99783.83;2129259;84;21044;-81
2021/06/03 04:22:55;;;;;;;26.50;14.70;;;;;;;10.18;64.55;99782.15;2129062;84;21020;-81
2021/06/03 04:25:56;;;;;;;23.10;15.30;;;;;;;10.49;64.16;99784.37;2128984;84;21380;-82
2021/06/03 04:28:57;;;;;;;33.53;17.20;;;;;;;10.84;63.88;99790.52;2129064;84;21060;-82
2021/06/03 04:31:58;;;;;;;30.33;19.37;;;;;;;11.15;63.50;99795.66;2129069;84;21064;-83
2021/06/03 04:34:59;;;;;;;34.25;19.65;;;;;;;11.38;62.50;99797.55;2128671;84;21444;-82
2021/06/03 04:38:00;;;;;;;28.40;19.23;;;;;;;11.67;61.76;99793.00;2128853;84;21285;-83
2021/06/03 04:41:01;;;;;;;27.70;18.62;;;;;;;11.92;61.13;99790.52;2129006;84;21607;-84
2021/06/03 04:44:02;;;;;;;25.88;18.25;;;;;;;12.19;60.74;99793.30;2128723;84;21378;-83
2021/06/03 04:47:03;;;;;;;22.85;17.90;;;;;;;12.45;60.06;99797.31;2128942;84;21301;-82
2021/06/03 04:50:04;;;;;;;23.92;18.62;;;;;;;12.76;59.47;99799.65;2128837;84;21341;-82
2021/06/03 04:53:05;;;;;;;28.25;16.67;;;;;;;13.06;58.80;99798.45;2128869;84;20993;-84
2021/06/03 04:56:06;;;;;;;24.60;17.77;;;;;;;13.24;58.39;99796.59;2129022;84;20947;-83
2021/06/03 04:59:07;;;;;;;23.30;17.55;;;;;;;13.44;58.03;99796.48;2128823;84;21047;-84
2021/06/03 05:02:07;;;;;;;26.40;17.50;;;;;;;13.61;57.66;99801.98;2129107;84;20984;-82
2021/06/03 05:05:08;;;;;;;24.47;18.52;;;;;;;13.76;57.20;99800.89;2128747;84;21020;-83
2021/06/03 05:08:09;;;;;;;20.45;17.60;;;;;;;13.97;56.79;99806.90;2129094;84;20968;-81
2021/06/03 05:11:10;;;;;;;26.90;18.00;;;;;;;14.19;56.27;99808.95;2128797;84;20945;-82
2021/06/03 05:14:11;;;;;;;20.97;15.72;;;;;;;14.39;56.09;99805.24;2128937;84;20934;-83
2021/06/03 05:17:12;;;;;;;20.68;17.02;;;;;;;14.59;55.80;99802.87;2129242;84;21049;-81
2021/06/03 05:20:13;;;;;;;21.57;16.50;;;;;;;14.73;55.89;99809.16;2129110;84;21043;-82
2021/06/03 05:23:14;;;;;;;25.80;15.72;;;;;;;14.85;55.68;99808.44;2128927;84;21040;-82
2021/06/03 05:26:15;;;;;;;17.20;14.47;;;;;;;15.03;55.26;99811.67;2128919;84;20968;-82
2021/06/03 05:29:16;;;;;;;21.90;14.63;;;;;;;15.21;54.84;99810.09;2129415;84;21241;-82
2021/06/03 05:32:17;;;;;;;18.85;15.28;;;;;;;15.36;54.68;99813.71;2129307;84;21023;-83
2021/06/03 05:35:18;;;;;;;19.07;15.25;;;;;;;15.62;54.61;99820.11;2128723;84;21063;-82
2021/06/03 05:38:19;;;;;;;18.25;13.30;;;;;;;15.95;54.02;99815.93;2129082;84;21004;-82
2021/06/03 05:41:20;;;;;;;23.12;14.00;;;;;;;16.32;53.27;99818.31;2129029;84;20977;-82
2021/06/03 05:44:21;;;;;;;17.07;13.45;;;;;;;16.66;52.52;99819.38;2129085;84;20989;-83
2021/06/03 05:47:22;;;;;;;16.48;13.98;;;;;;;16.87;52.01;99811.51;2128952;84;21044;-81
2021/06/03 05:50:23;;;;;;;18.82;15.15;;;;;;;17.00;51.68;99814.61;2129010;84;20964;-82
2021/06/03 05:53:24;;;;;;;18.73;14.53;;;;;;;17.13;51.29;99813.74;2128885;84;21021;-82
2021/06/03 05:56:25;;;;;;;21.45;13.75;;;;;;;17.34;50.78;99816.86;2129082;84;20981;-82
2021/06/03 05:59:26;;;;;;;17.35;13.45;;;;;;;17.56;50.41;99816.41;2129775;84;21003;-81
2021/06/03 06:02:46;;;;;;;23.32;13.88;;;;;;;17.85;49.96;99816.39;2129058;84;20988;-80
2021/06/03 06:08:55;;;;;;;13.85;11.85;;;;;;;18.43;48.59;99818.87;2129437;84;21033;-81
2021/06/03 06:11:56;;;;;;;13.80;10.00;;;;;;;18.68;48.38;99813.94;2129643;84;21056;-81
2021/06/03 06:14:57;;;;;;;11.48;10.28;;;;;;;19.00;47.03;99811.09;2129478;84;20973;-81
2021/06/03 06:17:58;;;;;;;96.05;13.13;;;;;;;19.34;46.71;99808.22;2129518;83;21024;-81
2021/06/03 06:20:59;;;;;;;10.78;9.60;;;;;;;19.65;46.05;99808.41;2129699;84;21054;-81
2021/06/03 06:24:00;;;;;;;9.93;8.80;;;;;;;19.92;45.10;99811.67;2128772;83;20949;-83
2021/06/03 06:27:01;;;;;;;10.45;8.90;;;;;;;20.07;44.67;99807.56;2129329;84;20997;-81
2021/06/03 06:30:02;;;;;;;12.90;8.38;;;;;;;20.29;44.44;99809.06;2129473;83;21076;-81
2021/06/03 06:33:03;;;;;;;10.60;7.58;;;;;;;20.58;43.52;99809.17;2129487;84;21024;-82
2021/06/03 06:36:04;;;;;;;9.18;7.72;;;;;;;20.78;42.72;99809.77;2129804;83;20997;-81
2021/06/03 06:39:06;;;;;;;9.65;8.15;;;;;;;21.03;42.09;99812.10;2128978;83;21530;-80
2021/06/03 06:42:07;;;;;;;9.38;7.62;;;;;;;21.36;41.57;99808.06;2128933;84;21032;-80
2021/06/03 06:45:08;;;;;;;7.33;6.58;;;;;;;21.64;40.67;99806.69;2129302;84;20996;-82
2021/06/03 06:48:09;;;;;;;6.30;5.67;;;;;;;21.73;39.39;99801.70;2129331;83;20981;-81
2021/06/03 06:51:09;;;;;;;6.03;5.45;;;;;;;21.90;38.61;99803.59;2129470;84;20973;-80
2021/06/03 06:54:10;;;;;;;7.35;6.47;;;;;;;22.01;38.27;99798.94;2129038;83;21011;-80
2021/06/03 06:57:11;;;;;;;7.90;6.60;;;;;;;22.21;37.71;99800.78;2129292;84;20993;-81
2021/06/03 07:00:12;;;;;;;6.22;5.72;;;;;;;22.15;38.18;99800.91;2128968;84;21000;-81
2021/06/03 07:03:13;;;;;;;7.33;6.08;;;;;;;22.39;39.04;99801.31;2127399;83;21035;-81
2021/06/03 07:06:14;;;;;;;4.40;4.00;;;;;;;22.53;38.54;99800.11;2119294;83;20961;-80
2021/06/03 07:09:15;;;;;;;5.10;3.92;;;;;;;22.74;36.27;99797.47;2119051;83;20989;-81
2021/06/03 07:12:16;;;;;;;5.50;3.65;;;;;;;22.83;35.61;99801.28;2118806;83;21025;-80
2021/06/03 07:15:17;;;;;;;4.08;3.10;;;;;;;23.01;34.68;99804.43;2119351;83;20953;-81
2021/06/03 07:18:18;;;;;;;6.70;3.45;;;;;;;23.14;34.03;99812.55;2119270;83;21077;-81
2021/06/03 07:21:19;;;;;;;5.47;3.15;;;;;;;23.41;34.06;99805.70;2119183;83;21006;-81
2021/06/03 07:24:20;;;;;;;7.33;3.08;;;;;;;23.68;33.78;99798.82;2119195;83;20993;-81
2021/06/03 07:27:21;;;;;;;6.80;2.92;;;;;;;23.79;32.33;99807.41;2119797;84;20970;-81
2021/06/03 07:30:22;;;;;;;4.70;3.33;;;;;;;23.82;32.78;99798.00;2119172;84;21387;-80
2021/06/03 07:33:23;;;;;;;5.92;3.33;;;;;;;23.77;31.43;99804.78;2119072;83;21068;-81
2021/06/03 07:36:24;;;;;;;4.05;3.20;;;;;;;23.81;31.33;99806.45;2119217;83;21081;-81
2021/06/03 07:39:25;;;;;;;4.53;3.10;;;;;;;23.95;30.65;99808.75;2119404;83;20973;-80
2021/06/03 07:42:26;;;;;;;4.95;3.12;;;;;;;24.00;30.59;99808.62;2119690;83;21038;-81
2021/06/03 07:45:27;;;;;;;3.60;3.05;;;;;;;23.98;30.78;99804.66;2119501;83;20946;-81
2021/06/03 07:48:29;;;;;;;5.08;2.98;;;;;;;24.01;29.35;99807.70;2118977;83;21063;-81
2021/06/03 07:51:30;;;;;;;4.40;3.10;;;;;;;23.90;27.69;99796.45;2119198;84;20938;-80
2021/06/03 07:54:31;;;;;;;11.15;2.90;;;;;;;23.94;28.28;99813.66;2119274;83;21012;-80
2021/06/03 07:57:32;;;;;;;4.90;2.62;;;;;;;23.76;26.12;99810.16;2119557;83;20961;-81
2021/06/03 08:00:35;;;;;;;3.75;2.60;;;;;;;23.74;26.77;99821.31;2119246;83;21480;-80
2021/06/03 08:03:36;;;;;;;3.20;2.90;;;;;;;23.84;27.38;99804.16;2119328;83;21148;-80
2021/06/03 08:06:38;;;;;;;5.62;3.08;;;;;;;23.96;28.05;99812.28;2119241;84;21029;-80
2021/06/03 08:09:39;;;;;;;5.40;2.95;;;;;;;24.23;27.37;99806.64;2119263;84;20972;-80
2021/06/03 08:12:40;;;;;;;5.90;2.87;;;;;;;24.31;26.43;99806.91;2119056;83;21045;-79
2021/06/03 08:15:41;;;;;;;12.55;2.72;;;;;;;24.32;28.22;99799.77;2119324;83;20988;-81
2021/06/03 08:18:42;;;;;;;5.33;2.60;;;;;;;24.72;26.60;99793.66;2119452;83;20997;-81
2021/06/03 08:21:42;;;;;;;3.72;2.55;;;;;;;25.12;26.67;99792.90;2119521;84;20965;-81
2021/06/03 08:24:43;;;;;;;2.90;2.37;;;;;;;25.39;26.14;99797.36;2119162;83;21064;-81
2021/06/03 08:27:44;;;;;;;2.50;2.30;;;;;;;25.75;25.61;99792.59;2119576;83;20964;-83
2021/06/03 08:30:45;;;;;;;5.30;2.15;;;;;;;25.67;25.48;99798.67;2119972;84;21029;-81
2021/06/03 08:33:46;;;;;;;3.17;2.30;;;;;;;25.87;25.16;99797.51;2119363;84;20976;-82
2021/06/03 08:36:47;;;;;;;3.90;2.70;;;;;;;25.57;25.12;99795.41;2120262;83;20985;-82
2021/06/03 08:39:49;;;;;;;6.40;2.52;;;;;;;25.53;24.90;99793.77;2120286;83;21306;-81
2021/06/03 08:42:50;;;;;;;5.40;2.55;;;;;;;26.07;24.96;99793.28;2119585;84;21033;-82
2021/06/03 08:45:51;;;;;;;4.92;2.62;;;;;;;26.07;24.35;99797.29;2119612;84;21005;-82
2021/06/03 08:48:52;;;;;;;2.98;2.30;;;;;;;25.43;24.34;99803.02;2119570;84;21002;-81
2021/06/03 08:51:53;;;;;;;11.00;2.70;;;;;;;24.85;24.45;99803.96;2119564;84;20969;-81
2021/06/03 08:54:55;;;;;;;4.35;2.50;;;;;;;24.70;24.94;99792.83;2119624;83;20957;-81
2021/06/03 08:57:56;;;;;;;14.80;3.02;;;;;;;24.56;24.49;99793.71;2119556;83;20922;-82
2021/06/03 09:00:59;;;;;;;3.37;2.37;;;;;;;24.98;24.79;99794.21;2119116;84;22404;-81
2021/06/03 09:04:00;;;;;;;7.10;2.55;;;;;;;25.35;24.44;99788.58;2119487;84;21036;-81
2021/06/03 09:07:01;;;;;;;6.67;2.50;;;;;;;25.86;24.46;99782.39;2119623;83;21021;-82
2021/06/03 09:10:02;;;;;;;5.55;2.60;;;;;;;26.24;23.87;99786.38;2119577;84;20957;-80
2021/06/03 09:13:03;;;;;;;3.50;2.50;;;;;;;26.44;23.30;99780.77;2119324;84;20938;-81
2021/06/03 09:16:04;;;;;;;5.62;2.42;;;;;;;26.38;23.63;99785.02;2119641;83;21012;-80
2021/06/03 09:19:05;;;;;;;4.17;2.80;;;;;;;26.09;24.26;99786.07;2119149;84;20984;-80
2021/06/03 09:22:06;;;;;;;6.72;2.60;;;;;;;25.96;23.84;99783.80;2119309;84;20957;-82
2021/06/03 09:25:07;;;;;;;7.03;2.47;;;;;;;25.66;23.99;99776.87;2119120;84;21413;-81
2021/06/03 09:28:08;;;;;;;6.83;2.77;;;;;;;25.24;24.81;99782.72;2119409;83;20945;-81
2021/06/03 09:31:09;;;;;;;4.35;2.47;;;;;;;25.59;24.94;99784.66;2119189;83;20997;-82
2021/06/03 09:34:11;;;;;;;4.37;2.60;;;;;;;26.03;23.73;99773.33;2119103;83;21095;-80
2021/06/03 09:37:12;;;;;;;3.85;2.58;;;;;;;25.91;24.26;99771.52;2119336;84;20937;-81
2021/06/03 09:40:13;;;;;;;3.02;2.72;;;;;;;25.95;23.14;99774.50;2119178;84;21012;-81
2021/06/03 09:43:14;;;;;;;3.98;2.60;;;;;;;26.25;23.24;99775.20;2119128;83;20957;-80
2021/06/03 09:46:15;;;;;;;5.55;2.50;;;;;;;26.34;23.51;99763.72;2119870;84;21349;-81
2021/06/03 09:49:16;;;;;;;4.05;2.30;;;;;;;26.69;23.65;99761.95;2119429;84;20993;-82
2021/06/03 09:52:17;;;;;;;4.97;2.27;;;;;;;26.72;22.93;99760.02;2119614;84;21353;-81
2021/06/03 09:55:18;;;;;;;7.47;2.33;;;;;;;27.23;22.85;99755.76;2119383;84;21025;-81
2021/06/03 09:58:19;;;;;;;4.25;2.45;;;;;;;27.75;22.34;99765.66;2119301;84;21029;-81
2021/06/03 10:01:20;;;;;;;3.77;2.30;;;;;;;27.98;22.11;99759.74;2119285;83;21021;-82
2021/06/03 10:04:21;;;;;;;4.65;2.10;;;;;;;28.10;21.95;99761.41;2119223;84;21033;-81
2021/06/03 10:07:22;;;;;;;3.92;2.22;;;;;;;28.42;21.64;99762.64;2119571;84;20978;-81
2021/06/03 10:10:23;;;;;;;4.28;2.40;;;;;;;28.61;21.46;99760.43;2119666;83;20974;-82
2021/06/03 10:13:24;;;;;;;2.62;2.22;;;;;;;28.32;20.94;99755.95;2119472;83;20988;-80
2021/06/03 10:16:25;;;;;;;2.65;2.45;;;;;;;27.13;21.58;99766.92;2119614;84;20976;-81
2021/06/03 10:19:29;;;;;;;4.30;2.50;;;;;;;26.34;21.88;99777.57;2119363;83;21040;-80
2021/06/03 10:22:30;;;;;;;5.03;2.40;;;;;;;26.31;22.69;99763.80;2119245;84;20984;-80
2021/06/03 10:25:31;;;;;;;5.62;2.20;;;;;;;26.54;22.57;99765.63;2119129;83;21029;-81
2021/06/03 10:28:32;;;;;;;3.33;2.22;;;;;;;26.91;22.31;99762.88;2119240;84;20973;-81
2021/06/03 10:31:33;;;;;;;2.58;2.22;;;;;;;27.14;22.15;99765.52;2119315;83;20989;-81
2021/06/03 10:34:34;;;;;;;3.45;2.27;;;;;;;27.35;22.54;99757.52;2119163;83;21416;-81
2021/06/03 10:37:35;;;;;;;7.20;2.30;;;;;;;27.33;22.27;99756.71;2119280;84;21000;-81
2021/06/03 10:40:36;;;;;;;4.00;2.30;;;;;;;27.39;22.89;99767.17;2119082;84;21042;-81
2021/06/03 10:43:37;;;;;;;6.70;2.30;;;;;;;27.48;21.82;99768.12;2118956;83;21025;-81
2021/06/03 10:46:37;;;;;;;5.97;2.40;;;;;;;27.72;21.18;99763.55;2119432;84;21294;-82
2021/06/03 10:49:38;;;;;;;5.60;2.72;;;;;;;27.88;21.25;99757.47;2119420;83;21375;-81
2021/06/03 10:52:39;;;;;;;5.22;2.22;;;;;;;28.25;21.09;99765.23;2119230;84;21302;-82
2021/06/03 10:55:40;;;;;;;2.60;2.40;;;;;;;28.54;21.03;99756.69;2119280;84;21369;-82
2021/06/03 10:58:41;;;;;;;9.90;2.95;;;;;;;28.95;20.29;99751.20;2119223;84;21365;-81
2021/06/03 11:01:42;;;;;;;3.58;2.27;;;;;;;29.06;19.57;99757.39;2119453;83;20937;-81
2021/06/03 11:04:43;;;;;;;5.50;2.35;;;;;;;28.80;19.44;99750.58;2122196;84;21364;-80
2021/06/03 11:07:44;;;;;;;7.40;2.52;;;;;;;28.75;20.10;99744.55;2129088;84;21343;-80
2021/06/03 11:10:45;;;;;;;2.22;1.98;;;;;;;28.90;19.98;99749.22;2129483;83;20937;-82
2021/06/03 11:13:46;;;;;;;2.67;2.15;;;;;;;29.02;20.00;99745.05;2129369;84;21349;-81
2021/06/03 11:16:48;;;;;;;4.80;2.42;;;;;;;29.14;19.58;99745.31;2129640;83;20980;-81
2021/06/03 11:19:49;;;;;;;5.25;2.10;;;;;;;29.33;19.72;99733.63;2129382;84;21432;-79
2021/06/03 11:22:50;;;;;;;3.27;2.30;;;;;;;29.38;19.38;99738.30;2128575;84;20976;-79
2021/06/03 11:25:51;;;;;;;4.80;2.40;;;;;;;29.28;20.76;99741.06;2128704;83;20985;-79
2021/06/03 11:28:52;;;;;;;4.78;3.42;;;;;;;28.92;21.00;99735.23;2128541;83;20933;-79
2021/06/03 11:31:53;;;;;;;4.72;2.27;;;;;;;28.88;19.59;99737.67;2128503;83;21356;-81
2021/06/03 11:34:54;;;;;;;6.60;2.52;;;;;;;28.81;20.31;99737.54;2128477;84;21047;-79
2021/06/03 11:37:56;;;;;;;4.58;2.30;;;;;;;28.83;19.65;99739.24;2128497;83;21008;-79
2021/06/03 11:40:56;;;;;;;6.55;2.62;;;;;;;28.73;21.21;99735.70;2128779;84;21008;-79
2021/06/03 11:43:57;;;;;;;3.33;2.10;;;;;;;28.72;21.15;99734.83;2128606;83;20945;-79
2021/06/03 11:46:58;;;;;;;4.30;3.15;;;;;;;28.58;20.16;99724.31;2128733;83;20941;-79
2021/06/03 11:49:59;;;;;;;5.70;2.22;;;;;;;28.53;20.56;99729.44;2128501;83;20985;-79
2021/06/03 11:53:00;;;;;;;6.47;2.60;;;;;;;27.77;20.27;99730.25;2128368;84;20960;-78
2021/06/03 11:56:01;;;;;;;2.95;2.67;;;;;;;26.61;21.92;99735.01;2128441;83;20948;-79
2021/06/03 11:59:03;;;;;;;4.33;2.67;;;;;;;26.30;22.89;99727.27;2128365;84;20984;-78
2021/06/03 12:02:03;;;;;;;3.22;2.85;;;;;;;26.34;22.77;99730.73;2128314;84;21032;-78
2021/06/03 12:05:04;;;;;;;4.97;2.30;;;;;;;26.47;23.38;99719.95;2128136;83;21079;-78
2021/06/03 12:08:05;;;;;;;6.30;2.58;;;;;;;26.92;22.57;99719.08;2128322;83;20968;-78
2021/06/03 12:11:06;;;;;;;6.08;2.80;;;;;;;27.34;23.00;99712.88;2128474;84;21013;-79
2021/06/03 12:14:07;;;;;;;6.83;2.62;;;;;;;27.73;22.78;99710.30;2128433;84;21009;-78
2021/06/03 12:17:08;;;;;;;10.55;2.95;;;;;;;28.22;22.37;99707.62;2128450;84;20973;-80
2021/06/03 12:20:09;;;;;;;7.78;2.72;;;;;;;28.46;21.62;99709.19;2128551;84;20984;-79
2021/06/03 12:23:10;;;;;;;4.20;2.45;;;;;;;28.58;20.28;99705.05;2128664;83;20979;-77
2021/06/03 12:26:11;;;;;;;3.20;2.40;;;;;;;28.55;20.79;99703.37;2128556;84;20949;-79
2021/06/03 12:29:12;;;;;;;7.45;2.33;;;;;;;28.80;20.69;99703.56;2128177;84;20984;-79
2021/06/03 12:32:13;;;;;;;4.65;2.30;;;;;;;28.96;20.39;99707.26;2128467;83;21081;-79
2021/06/03 12:35:14;;;;;;;5.28;2.10;;;;;;;28.74;20.18;99702.52;2128157;83;21080;-79
2021/06/03 12:38:15;;;;;;;3.52;2.30;;;;;;;28.33;20.12;99709.37;2128654;83;21008;-80
2021/06/03 12:41:16;;;;;;;2.58;2.30;;;;;;;27.72;20.32;99707.22;2128349;83;21048;-81
2021/06/03 12:44:17;;;;;;;3.60;2.50;;;;;;;27.00;20.88;99704.93;2128566;83;20980;-80
2021/06/03 12:47:18;;;;;;;2.80;2.35;;;;;;;26.64;21.51;99704.56;2128229;83;21016;-78
2021/06/03 12:50:19;;;;;;;3.47;2.25;;;;;;;26.47;22.43;99703.89;2128560;83;21341;-78
2021/06/03 12:53:20;;;;;;;3.25;2.50;;;;;;;26.44;22.09;99696.45;2128494;84;20972;-79
2021/06/03 12:56:24;;;;;;;3.60;2.25;;;;;;;26.55;23.32;99693.75;2128227;83;21010;-79
2021/06/03 12:59:25;;;;;;;3.10;2.30;;;;;;;27.31;21.83;99688.89;2128601;83;21424;-79
2021/06/03 13:02:26;;;;;;;2.50;2.30;;;;;;;27.87;21.76;99681.95;2128657;83;21388;-79
2021/06/03 13:05:27;;;;;;;4.20;2.37;;;;;;;28.30;20.39;99680.45;2124464;84;21016;-79
2021/06/03 13:08:28;;;;;;;4.17;2.65;;;;;;;28.01;20.67;99679.97;2118813;83;21306;-79
2021/06/03 13:11:29;;;;;;;2.42;2.20;;;;;;;28.30;19.57;99671.92;2118443;84;20921;-78
2021/06/03 13:14:30;;;;;;;4.00;2.37;;;;;;;28.00;19.47;99671.99;2118570;84;21040;-78
2021/06/03 13:17:32;;;;;;;3.85;2.30;;;;;;;27.39;20.50;99670.66;2118482;83;20993;-78
2021/06/03 13:20:33;;;;;;;6.37;2.50;;;;;;;27.45;20.17;99675.28;2118719;83;21056;-78
2021/06/03 13:23:34;;;;;;;4.12;2.40;;;;;;;27.22;20.61;99670.92;2118899;83;20962;-79
2021/06/03 13:26:35;;;;;;;4.62;2.42;;;;;;;26.60;21.93;99669.47;2118740;84;21329;-79
2021/06/03 13:29:36;;;;;;;3.05;2.75;;;;;;;25.97;22.26;99677.68;2118551;84;20973;-78
2021/06/03 13:32:37;;;;;;;4.30;2.70;;;;;;;25.81;22.52;99679.19;2118225;83;21026;-79
2021/06/03 13:38:41;;;;;;;6.97;2.47;;;;;;;25.78;22.83;99666.80;2098647;84;21023;-80
2021/06/03 13:41:42;;;;;;;3.12;2.62;;;;;;;25.92;23.38;99672.97;2118712;84;20965;-78
2021/06/03 13:44:42;;;;;;;7.08;2.67;;;;;;;25.52;22.81;99671.73;2118815;84;20960;-79
2021/06/03 13:47:43;;;;;;;5.25;2.80;;;;;;;25.31;24.08;99667.14;2118798;83;21017;-78
2021/06/03 13:50:44;;;;;;;3.37;2.52;;;;;;;25.46;23.44;99665.27;2118632;84;20969;-78
2021/06/03 13:53:48;;;;;;;4.42;2.85;;;;;;;25.86;22.75;99664.71;2118902;83;20980;-79
2021/06/03 13:56:48;;;;;;;2.60;2.30;;;;;;;26.38;23.01;99662.77;2118639;84;21025;-79
2021/06/03 13:59:49;;;;;;;3.27;2.65;;;;;;;26.63;22.66;99660.84;2118748;83;20937;-79
2021/06/03 14:02:49;;;;;;;3.00;2.27;;;;;;;27.04;22.15;99662.34;2118802;83;20942;-79
2021/06/03 14:05:50;;;;;;;3.17;2.42;;;;;;;27.45;21.38;99660.55;2118557;84;21052;-78
2021/06/03 14:08:52;;;;;;;4.30;2.30;;;;;;;27.50;20.28;99663.89;2118703;83;20965;-79
2021/06/03 14:12:03;;;;;;;2.52;2.33;;;;;;;27.54;21.04;99657.45;2118729;84;20985;-78